Date,TemperatureHighF,TemperatureAvgF,TemperatureLowF,DewpointHighF,DewpointAvgF,DewpointLowF,HumidityHigh,HumidityAvg,HumidityLow,PressureMaxIn,PressureMinIn,WindSpeedMaxMPH,WindSpeedAvgMPH,GustSpeedMaxMPH,PrecipitationSumIn
2013-6-1,50,41,37,39,36,34,96,84,67,0.00,40.00,10,4,14,0.00
2013-6-2,42,36,30,36,29,22,97,77,54,0.00,40.00,27,8,32,0.00
2013-6-3,34,33,30,31,30,29,98,90,85,0.00,40.00,26,19,35,0.00
2013-6-4,34,31,29,32,30,28,98,94,89,0.00,40.00,26,16,32,0.00
2013-6-5,45,33,25,36,29,24,97,86,68,0.00,40.00,19,9,20,0.00
2013-6-6,45,35,29,34,28,23,97,78,48,0.00,40.00,23,12,34,0.00
2013-6-7,59,46,39,31,28,24,65,50,32,0.00,40.00,11,5,18,0.00
2013-6-8,52,44,38,36,33,31,76,63,52,0.00,40.00,13,8,17,0.00
2013-6-9,56,49,44,37,35,33,73,58,42,0.00,40.00,13,8,16,0.00
2013-6-10,52,48,46,35,34,31,65,56,47,0.00,40.00,11,8,17,0.00
2013-6-11,51,45,40,37,34,32,78,67,54,0.00,40.00,19,10,22,0.00
2013-6-12,59,51,45,34,32,27,65,49,32,0.00,40.00,10,5,13,0.00
2013-6-13,54,48,37,38,33,27,92,58,43,0.00,40.00,13,4,19,0.00
2013-6-14,53,48,42,38,34,30,83,59,44,0.00,40.00,14,9,18,0.00
2013-6-15,59,54,49,42,35,29,67,50,36,0.00,40.00,9,5,14,0.00
2013-6-16,66,56,50,41,36,31,61,47,30,0.00,40.00,10,5,12,0.06
2013-6-17,65,60,57,45,40,36,56,47,36,0.00,40.00,12,7,17,0.12
2013-6-18,62,50,39,45,36,29,97,59,36,0.00,40.00,29,19,41,0.01
2013-6-19,42,39,36,37,34,31,98,84,64,0.00,40.00,37,23,52,0.00
2013-6-20,45,43,42,34,32,30,69,66,62,0.00,40.00,24,22,29,0.00
2013-6-22,44,40,38,35,30,23,91,67,43,0.00,40.00,35,23,45,0.00
2013-6-23,40,37,34,37,33,26,97,86,57,0.00,40.00,35,18,50,0.00
2013-6-24,54,45,38,42,38,35,97,78,59,0.00,40.00,17,8,25,0.00
2013-6-25,63,56,48,42,38,34,79,52,37,0.00,40.00,10,5,14,0.10
2013-6-26,59,52,45,46,40,37,92,66,48,0.00,40.00,34,16,46,0.07
2013-6-27,59,50,44,48,45,41,96,83,66,0.00,40.00,18,6,24,0.00
2013-6-28,52,46,43,45,43,42,99,90,78,0.00,40.00,15,5,22,0.00
2013-6-29,51,45,41,49,44,41,100,96,89,0.00,40.00,12,7,17,0.00
2013-6-30,43,40,35,43,40,35,100,98,94,0.00,40.00,39,23,44,0.00